createdAt,value
2023-07-25T00:01:06.228Z,3.20
2023-07-25T00:03:33.712Z,3.30
2023-07-25T00:06:06.791Z,2.80
2023-07-25T00:08:33.811Z,2.57
2023-07-25T00:11:01.403Z,2.33
2023-07-25T00:13:28.875Z,2.60
2023-07-25T00:15:55.870Z,3.13
2023-07-25T00:18:22.922Z,4.13
2023-07-25T00:20:49.953Z,2.87
2023-07-25T00:23:16.970Z,2.80
2023-07-25T00:25:43.951Z,2.70
2023-07-25T00:28:10.933Z,2.70
2023-07-25T00:30:37.996Z,3.23
2023-07-25T00:33:05.001Z,3.10
2023-07-25T00:35:32.008Z,2.33
2023-07-25T00:37:58.952Z,2.00
2023-07-25T00:40:26.472Z,3.10
2023-07-25T00:42:56.885Z,2.73
2023-07-25T00:45:25.388Z,2.83
2023-07-25T00:47:53.997Z,2.80
2023-07-25T00:50:21.368Z,2.80
2023-07-25T00:52:48.879Z,3.10
2023-07-25T00:55:15.885Z,3.23
2023-07-25T00:57:42.873Z,2.40
2023-07-25T01:00:10.628Z,2.83
2023-07-25T01:02:37.856Z,3.23
2023-07-25T01:05:05.385Z,2.70
2023-07-25T01:07:32.970Z,2.70
2023-07-25T01:10:00.197Z,2.30
2023-07-25T01:12:27.266Z,2.53
2023-07-25T01:14:54.321Z,2.60
2023-07-25T01:17:25.234Z,2.83
2023-07-25T01:19:53.556Z,2.30
2023-07-25T01:22:21.475Z,2.33
2023-07-25T01:24:49.225Z,2.20
2023-07-25T01:27:17.008Z,2.40
2023-07-25T01:29:44.327Z,3.00
2023-07-25T01:32:12.316Z,2.90
2023-07-25T01:34:39.923Z,2.67
2023-07-25T01:37:07.764Z,3.00
2023-07-25T01:39:34.838Z,2.13
2023-07-25T01:42:02.115Z,2.27
2023-07-25T01:44:29.024Z,2.50
2023-07-25T01:46:57.568Z,2.53
2023-07-25T01:49:24.544Z,2.57
2023-07-25T01:51:51.732Z,2.20
2023-07-25T01:54:20.004Z,2.33
2023-07-25T01:56:50.381Z,2.10
2023-07-25T01:59:18.838Z,2.40
2023-07-25T02:01:45.993Z,2.87
2023-07-25T02:04:13.082Z,3.10
2023-07-25T02:06:40.160Z,2.63
2023-07-25T02:09:07.106Z,2.17
2023-07-25T02:11:34.364Z,2.20
2023-07-25T02:14:01.759Z,2.97
2023-07-25T02:16:29.501Z,2.27
2023-07-25T02:18:56.565Z,2.60
2023-07-25T02:21:23.612Z,2.37
2023-07-25T02:23:50.606Z,2.60
2023-07-25T02:26:17.608Z,2.40
2023-07-25T02:28:44.567Z,2.60
2023-07-25T02:31:11.573Z,2.90
2023-07-25T02:33:40.143Z,2.50
2023-07-25T02:36:07.317Z,2.83
2023-07-25T02:38:34.330Z,2.50
2023-07-25T02:41:01.406Z,3.30
2023-07-25T02:43:28.481Z,2.60
2023-07-25T02:45:55.471Z,2.40
2023-07-25T02:48:22.613Z,2.57
2023-07-25T02:50:49.579Z,2.53
2023-07-25T02:53:16.547Z,2.37
2023-07-25T02:55:43.527Z,2.40
2023-07-25T02:58:10.664Z,2.70
2023-07-25T03:00:37.627Z,2.30
2023-07-25T03:03:04.644Z,2.70
2023-07-25T03:05:31.617Z,3.30
2023-07-25T03:07:58.748Z,2.70
2023-07-25T03:10:25.824Z,3.43
2023-07-25T03:12:53.972Z,2.67
2023-07-25T03:15:21.558Z,2.50
2023-07-25T03:17:48.711Z,2.40
2023-07-25T03:20:15.783Z,2.20
2023-07-25T03:22:44.047Z,2.90
2023-07-25T03:25:11.437Z,2.80
2023-07-25T03:27:38.915Z,3.70
2023-07-25T03:30:06.726Z,3.10
2023-07-25T03:32:33.813Z,2.90
2023-07-25T03:35:01.030Z,2.57
2023-07-25T03:37:28.183Z,3.63
2023-07-25T03:39:55.200Z,3.23
2023-07-25T03:42:22.208Z,3.33
2023-07-25T03:44:49.230Z,3.00
2023-07-25T03:47:16.202Z,2.90
2023-07-25T03:49:43.308Z,2.80
2023-07-25T03:52:10.487Z,3.30
2023-07-25T03:54:37.515Z,3.63
2023-07-25T03:57:05.077Z,3.50
2023-07-25T03:59:32.182Z,4.10
2023-07-25T04:01:59.277Z,4.20
2023-07-25T04:04:26.464Z,3.70
2023-07-25T04:06:53.551Z,3.90
2023-07-25T04:09:20.680Z,4.10
2023-07-25T04:11:47.709Z,3.63
2023-07-25T04:14:14.721Z,3.47
2023-07-25T04:16:41.744Z,4.13
2023-07-25T04:19:08.764Z,3.00
2023-07-25T04:21:35.742Z,2.73
2023-07-25T04:24:02.739Z,3.17
2023-07-25T04:26:29.757Z,3.20
2023-07-25T04:28:56.821Z,3.10
2023-07-25T04:31:23.748Z,2.63
2023-07-25T04:33:50.776Z,2.70
2023-07-25T04:36:17.874Z,2.90
2023-07-25T04:38:44.902Z,2.70
2023-07-25T04:41:12.088Z,2.83
2023-07-25T04:43:39.077Z,2.57
2023-07-25T04:46:06.219Z,2.70
2023-07-25T04:48:33.460Z,2.83
2023-07-25T04:51:00.681Z,2.80
2023-07-25T04:53:27.827Z,3.07
2023-07-25T04:55:54.959Z,3.00
2023-07-25T04:58:21.977Z,2.73
2023-07-25T05:00:51.654Z,2.27
2023-07-25T05:03:18.981Z,2.63
2023-07-25T05:05:46.233Z,3.03
2023-07-25T05:08:13.270Z,3.97
2023-07-25T05:10:42.101Z,3.37
2023-07-25T05:13:09.205Z,2.30
2023-07-25T05:15:36.425Z,3.30
2023-07-25T05:18:03.676Z,2.43
2023-07-25T05:20:31.398Z,3.33
2023-07-25T05:22:58.370Z,3.77
2023-07-25T05:25:25.341Z,3.30
2023-07-25T05:27:52.349Z,3.50
2023-07-25T05:30:19.260Z,4.17
2023-07-25T05:32:46.975Z,4.33
2023-07-25T05:35:14.003Z,3.90
2023-07-25T05:37:40.959Z,6.77
2023-07-25T05:40:08.367Z,3.50
2023-07-25T05:42:35.764Z,3.57
2023-07-25T05:45:02.898Z,4.13
2023-07-25T05:47:30.028Z,3.53
2023-07-25T05:49:58.301Z,3.57
2023-07-25T05:52:25.289Z,3.33
2023-07-25T05:54:53.354Z,4.10
2023-07-25T05:57:21.206Z,2.90
2023-07-25T05:59:48.350Z,3.23
2023-07-25T06:02:17.488Z,3.23
2023-07-25T06:04:47.327Z,3.10
2023-07-25T06:07:15.435Z,3.50
2023-07-25T06:09:42.788Z,3.97
2023-07-25T06:12:10.474Z,3.07
2023-07-25T06:14:37.925Z,3.03
2023-07-25T06:17:05.196Z,4.00
2023-07-25T06:19:32.310Z,4.00
2023-07-25T06:21:59.317Z,3.60
2023-07-25T06:24:26.443Z,3.87
2023-07-25T06:26:53.393Z,4.17
2023-07-25T06:29:20.341Z,3.50
2023-07-25T06:31:47.509Z,3.67
2023-07-25T06:34:14.551Z,4.03
2023-07-25T06:36:41.596Z,4.17
2023-07-25T06:39:09.132Z,2.83
2023-07-25T06:41:36.330Z,3.67
2023-07-25T06:44:04.127Z,4.27
2023-07-25T06:46:31.216Z,4.63
2023-07-25T06:48:58.186Z,4.20
2023-07-25T06:51:25.209Z,4.60
2023-07-25T06:53:52.213Z,4.20
2023-07-25T06:56:19.221Z,4.60
2023-07-25T06:58:46.200Z,4.70
2023-07-25T07:01:13.187Z,4.90
2023-07-25T07:03:40.180Z,3.63
2023-07-25T07:06:07.104Z,4.60
2023-07-25T07:08:34.084Z,4.70
2023-07-25T07:11:01.085Z,4.40
2023-07-25T07:13:29.930Z,4.40
2023-07-25T07:15:58.560Z,4.50
2023-07-25T07:18:25.678Z,4.30
2023-07-25T07:20:52.632Z,4.00
2023-07-25T07:23:19.603Z,3.87
2023-07-25T07:25:46.963Z,4.10
2023-07-25T07:28:14.408Z,4.37
2023-07-25T07:30:41.479Z,3.70
2023-07-25T07:33:08.662Z,3.33
2023-07-25T07:35:35.637Z,4.30
2023-07-25T07:38:02.641Z,4.10
2023-07-25T07:40:29.990Z,4.17
2023-07-25T07:42:57.402Z,4.27
2023-07-25T07:45:25.909Z,3.67
2023-07-25T07:47:53.104Z,3.70
2023-07-25T07:50:20.857Z,4.00
2023-07-25T07:52:48.155Z,4.40
2023-07-25T07:55:16.818Z,3.30
2023-07-25T07:57:45.762Z,3.60
2023-07-25T08:00:14.957Z,4.17
2023-07-25T08:02:46.026Z,4.73
2023-07-25T08:05:14.334Z,4.80
2023-07-25T08:07:41.858Z,3.77
2023-07-25T08:10:09.506Z,3.53
2023-07-25T08:12:36.902Z,4.07
2023-07-25T08:15:04.337Z,4.10
2023-07-25T08:17:31.420Z,3.90
2023-07-25T08:19:58.596Z,4.27
2023-07-25T08:22:25.616Z,3.57
2023-07-25T08:24:55.174Z,5.23
2023-07-25T08:27:22.415Z,4.00
2023-07-25T08:29:50.261Z,4.13
2023-07-25T08:32:17.374Z,3.40
2023-07-25T08:34:44.812Z,3.90
2023-07-25T08:37:11.800Z,3.23
2023-07-25T08:39:38.873Z,3.37
2023-07-25T08:42:08.194Z,3.60
2023-07-25T08:44:38.840Z,2.90
2023-07-25T08:47:11.030Z,2.97
2023-07-25T08:49:41.527Z,3.43
2023-07-25T08:52:09.462Z,2.87
2023-07-25T08:54:38.125Z,2.80
2023-07-25T08:57:06.008Z,2.87
2023-07-25T08:59:33.386Z,2.33
2023-07-25T09:02:00.847Z,2.47
2023-07-25T09:04:28.902Z,3.10
2023-07-25T09:06:56.016Z,3.10
2023-07-25T09:09:24.324Z,2.53
2023-07-25T09:11:52.184Z,3.10
2023-07-25T09:14:19.409Z,3.60
2023-07-25T09:16:46.456Z,2.43
2023-07-25T09:19:14.196Z,3.00
2023-07-25T09:21:51.976Z,2.60
2023-07-25T09:24:19.070Z,3.37
2023-07-25T09:26:53.229Z,2.80
2023-07-25T09:29:22.030Z,2.60
2023-07-25T09:31:49.280Z,2.23
2023-07-25T09:34:18.777Z,2.70
2023-07-25T09:36:48.117Z,2.07
2023-07-25T09:39:16.152Z,2.70
2023-07-25T09:41:44.185Z,2.73
2023-07-25T09:44:11.244Z,1.90
2023-07-25T09:46:38.740Z,2.50
2023-07-25T09:49:05.789Z,2.87
2023-07-25T09:51:32.858Z,3.10
2023-07-25T09:53:59.925Z,3.10
2023-07-25T09:56:28.009Z,2.60
2023-07-25T10:01:26.686Z,2.57
2023-07-25T10:03:55.060Z,2.40
2023-07-25T10:06:22.546Z,2.37
2023-07-25T10:08:49.988Z,2.53
2023-07-25T10:11:17.690Z,2.30
2023-07-25T10:13:44.991Z,2.23
2023-07-25T10:16:15.550Z,2.27
2023-07-25T10:18:42.941Z,2.57
2023-07-25T10:21:12.864Z,2.27
2023-07-25T10:23:40.344Z,2.67
2023-07-25T10:26:21.195Z,2.10
2023-07-25T10:28:48.180Z,2.73
2023-07-25T10:31:31.573Z,2.33
2023-07-25T10:34:00.368Z,2.67
2023-07-25T10:36:27.919Z,2.00
2023-07-25T10:39:08.218Z,2.33
2023-07-25T10:41:35.440Z,3.27
2023-07-25T10:44:03.862Z,2.97
2023-07-25T10:46:35.329Z,2.57
2023-07-25T10:49:04.501Z,2.97
2023-07-25T10:51:53.051Z,3.20
2023-07-25T10:54:25.118Z,2.87
2023-07-25T10:57:11.786Z,2.90
2023-07-25T10:59:58.750Z,3.47
2023-07-25T11:02:33.799Z,3.23
2023-07-25T11:05:16.081Z,4.07
2023-07-25T11:07:49.887Z,3.40
2023-07-25T11:10:25.350Z,3.77
2023-07-25T11:13:02.412Z,3.07
2023-07-25T11:15:46.755Z,3.30
2023-07-25T11:18:15.406Z,3.03
2023-07-25T11:20:42.482Z,2.47
2023-07-25T11:23:09.476Z,2.70
2023-07-25T11:25:36.552Z,3.30
2023-07-25T11:28:03.638Z,3.17
2023-07-25T11:30:30.674Z,2.93
2023-07-25T11:32:57.726Z,3.07
2023-07-25T11:35:26.033Z,3.60
2023-07-25T11:38:02.534Z,3.00
2023-07-25T11:40:30.335Z,3.47
2023-07-25T11:42:58.056Z,3.10
2023-07-25T11:45:25.853Z,2.90
2023-07-25T11:47:54.525Z,3.10
2023-07-25T11:50:27.716Z,3.47
2023-07-25T11:52:58.454Z,3.40
2023-07-25T11:55:27.607Z,3.70
2023-07-25T11:57:55.495Z,2.87
2023-07-25T12:00:23.598Z,3.30
2023-07-25T12:02:50.589Z,3.13
2023-07-25T12:05:28.216Z,3.47
2023-07-25T12:08:03.860Z,2.90
2023-07-25T12:10:36.100Z,2.77
2023-07-25T12:13:04.756Z,3.07
2023-07-25T12:15:51.291Z,3.90
2023-07-25T12:18:30.550Z,2.87
2023-07-25T12:20:59.842Z,2.93
2023-07-25T12:23:34.959Z,2.30
2023-07-25T12:26:03.032Z,3.40
2023-07-25T12:28:44.001Z,3.53
2023-07-25T12:31:11.605Z,2.77
2023-07-25T12:33:39.558Z,2.50
2023-07-25T12:36:07.238Z,2.77
2023-07-25T12:38:34.608Z,2.80
2023-07-25T12:41:01.661Z,3.80
2023-07-25T12:43:28.665Z,2.70
2023-07-25T12:45:55.931Z,2.60
2023-07-25T12:48:23.238Z,2.10
2023-07-25T12:50:51.959Z,2.80
2023-07-25T12:53:18.954Z,2.40
2023-07-25T12:55:46.002Z,2.67
2023-07-25T12:58:13.069Z,2.57
2023-07-25T13:00:40.177Z,2.03
2023-07-25T13:03:09.458Z,2.20
2023-07-25T13:05:36.662Z,3.03
2023-07-25T13:08:03.898Z,2.33
2023-07-25T13:10:30.854Z,2.87
2023-07-25T13:12:57.907Z,3.20
2023-07-25T13:15:25.001Z,3.40
2023-07-25T13:17:52.060Z,3.57
2023-07-25T13:20:19.214Z,2.70
2023-07-25T13:22:46.257Z,3.40
2023-07-25T13:25:13.340Z,3.37
2023-07-25T13:27:40.342Z,3.20
2023-07-25T13:30:08.560Z,3.27
2023-07-25T13:32:35.665Z,3.10
2023-07-25T13:35:02.805Z,3.63
2023-07-25T13:37:29.928Z,4.17
2023-07-25T13:39:56.919Z,3.57
2023-07-25T13:42:24.739Z,4.03
2023-07-25T13:44:51.920Z,3.70
2023-07-25T13:47:19.042Z,3.60
2023-07-25T13:49:46.241Z,4.27
2023-07-25T13:52:13.259Z,4.40
2023-07-25T13:54:40.250Z,3.83
2023-07-25T13:57:07.811Z,3.67
2023-07-25T13:59:37.721Z,3.63
2023-07-25T14:02:04.899Z,3.67
2023-07-25T14:04:32.028Z,3.20
2023-07-25T14:06:59.226Z,3.00
2023-07-25T14:09:26.174Z,3.70
2023-07-25T14:11:53.941Z,3.20
2023-07-25T14:14:21.613Z,3.83
2023-07-25T14:16:48.596Z,4.20
2023-07-25T14:19:15.763Z,4.00
2023-07-25T14:21:43.052Z,3.93
2023-07-25T14:24:10.109Z,4.10
2023-07-25T14:26:37.498Z,4.80
2023-07-25T14:29:04.934Z,4.10
2023-07-25T14:31:32.190Z,3.93
2023-07-25T14:33:59.627Z,4.20
2023-07-25T14:36:26.649Z,4.73
2023-07-25T14:38:53.585Z,4.90
2023-07-25T14:41:20.639Z,5.30
2023-07-25T14:43:48.073Z,4.57
2023-07-25T14:46:15.739Z,4.63
2023-07-25T14:48:42.908Z,5.00
2023-07-25T14:51:09.954Z,4.33
2023-07-25T14:53:37.001Z,4.70
2023-07-25T14:56:04.240Z,5.17
2023-07-25T14:58:31.357Z,4.77
2023-07-25T15:00:58.536Z,5.90
2023-07-25T15:03:25.634Z,4.83
2023-07-25T15:05:52.605Z,5.07
2023-07-25T15:08:19.595Z,4.97
2023-07-25T15:10:46.676Z,4.87
2023-07-25T15:13:13.651Z,5.60
2023-07-25T15:15:40.677Z,4.93
2023-07-25T15:18:09.055Z,5.30
2023-07-25T15:20:36.294Z,6.43
2023-07-25T15:23:03.286Z,6.30
2023-07-25T15:25:30.306Z,5.93
2023-07-25T15:27:57.318Z,6.13
2023-07-25T15:30:24.349Z,6.07
2023-07-25T15:32:51.386Z,6.30
2023-07-25T15:35:18.471Z,6.50
2023-07-25T15:37:45.525Z,7.20
2023-07-25T15:40:12.601Z,7.23
2023-07-25T15:42:39.626Z,6.10
2023-07-25T15:45:06.998Z,6.60
2023-07-25T15:47:34.019Z,5.60
2023-07-25T15:50:01.129Z,4.47
2023-07-25T15:52:28.254Z,5.97
2023-07-25T15:54:55.182Z,4.40
2023-07-25T15:57:22.174Z,5.67
2023-07-25T15:59:49.175Z,5.33
2023-07-25T16:02:16.322Z,5.03
2023-07-25T16:04:43.248Z,4.57
2023-07-25T16:07:10.219Z,3.70
2023-07-25T16:09:37.680Z,4.00
2023-07-25T16:12:05.642Z,3.87
2023-07-25T16:14:32.587Z,3.70
2023-07-25T16:16:59.584Z,5.30
2023-07-25T16:19:27.125Z,4.03
2023-07-25T16:21:54.129Z,5.40
2023-07-25T16:24:21.079Z,5.50
2023-07-25T16:26:48.040Z,5.47
2023-07-25T16:29:15.182Z,14.47
2023-07-25T16:31:42.445Z,6.00
2023-07-25T16:34:09.455Z,6.40
2023-07-25T16:36:36.811Z,9.93
2023-07-25T16:39:04.025Z,6.40
2023-07-25T16:41:31.260Z,7.07
2023-07-25T16:43:58.350Z,7.93
2023-07-25T16:46:25.471Z,6.80
2023-07-25T16:48:52.516Z,7.90
2023-07-25T16:51:19.452Z,7.83
2023-07-25T16:53:46.449Z,7.53
2023-07-25T16:56:13.851Z,8.50
2023-07-25T16:58:40.826Z,7.40
2023-07-25T17:01:07.857Z,8.30
2023-07-25T17:03:35.086Z,8.50
2023-07-25T17:06:04.493Z,8.53
2023-07-25T17:08:32.294Z,6.67
2023-07-25T17:11:05.329Z,6.00
2023-07-25T17:13:32.620Z,6.57
2023-07-25T17:15:59.884Z,7.67
2023-07-25T17:18:28.065Z,6.50
2023-07-25T17:20:55.085Z,6.97
2023-07-25T17:23:22.200Z,6.23
2023-07-25T17:25:49.210Z,7.73
2023-07-25T17:28:16.270Z,6.57
2023-07-25T17:30:43.354Z,7.30
2023-07-25T17:33:10.494Z,8.10
2023-07-25T17:35:38.452Z,6.90
2023-07-25T17:38:06.613Z,6.20
2023-07-25T17:40:33.600Z,6.20
2023-07-25T17:43:00.545Z,6.20
2023-07-25T17:45:27.479Z,6.10
2023-07-25T17:47:54.480Z,7.10
2023-07-25T17:50:21.530Z,7.27
2023-07-25T17:52:48.515Z,6.40
2023-07-25T17:55:15.608Z,6.07
2023-07-25T17:57:42.596Z,7.00
2023-07-25T18:00:10.168Z,7.10
2023-07-25T18:02:39.906Z,6.70
2023-07-25T18:05:07.342Z,6.47
2023-07-25T18:07:34.415Z,6.43
2023-07-25T18:10:01.722Z,7.33
2023-07-25T18:12:28.808Z,8.03
2023-07-25T18:14:55.914Z,7.50
2023-07-25T18:17:22.962Z,8.60
2023-07-25T18:19:50.181Z,7.00
2023-07-25T18:22:17.191Z,7.47
2023-07-25T18:24:44.279Z,6.13
2023-07-25T18:27:11.412Z,5.70
2023-07-25T18:29:38.455Z,4.83
2023-07-25T18:32:05.906Z,5.23
2023-07-25T18:34:32.928Z,5.57
2023-07-25T18:36:59.933Z,5.50
2023-07-25T18:39:26.919Z,6.07
2023-07-25T18:41:54.057Z,10.37
2023-07-25T18:44:21.041Z,5.10
2023-07-25T18:46:48.074Z,5.40
2023-07-25T18:49:15.184Z,4.70
2023-07-25T18:51:42.447Z,5.03
2023-07-25T18:54:09.577Z,5.67
2023-07-25T18:56:36.748Z,5.00
2023-07-25T18:59:05.223Z,6.67
2023-07-25T19:01:34.956Z,7.00
2023-07-25T19:04:02.527Z,7.40
2023-07-25T19:06:29.760Z,8.23
2023-07-25T19:08:56.908Z,8.67
2023-07-25T19:11:23.964Z,8.10
2023-07-25T19:13:50.977Z,8.50
2023-07-25T19:16:27.060Z,8.23
2023-07-25T19:18:54.626Z,7.00
2023-07-25T19:21:21.992Z,6.97
2023-07-25T19:23:49.246Z,6.73
2023-07-25T19:26:16.529Z,6.80
2023-07-25T19:28:43.720Z,5.20
2023-07-25T19:31:11.124Z,6.07
2023-07-25T19:33:38.588Z,6.30
2023-07-25T19:36:05.958Z,4.40
2023-07-25T19:38:36.235Z,4.90
2023-07-25T19:41:03.446Z,4.93
2023-07-25T19:43:30.888Z,4.57
2023-07-25T19:46:05.037Z,4.07
2023-07-25T19:48:33.068Z,4.00
2023-07-25T19:51:08.910Z,4.07
2023-07-25T19:53:36.549Z,4.40
2023-07-25T19:56:04.070Z,5.03
2023-07-25T19:58:31.298Z,4.80
2023-07-25T20:00:59.478Z,4.60
2023-07-25T20:03:29.725Z,5.10
2023-07-25T20:05:56.949Z,4.00
2023-07-25T20:08:24.072Z,5.43
2023-07-25T20:10:51.243Z,7.03
2023-07-25T20:13:18.553Z,4.67
2023-07-25T20:15:47.141Z,4.50
2023-07-25T20:18:15.163Z,5.67
2023-07-25T20:20:42.355Z,4.73
2023-07-25T20:23:09.530Z,5.20
2023-07-25T20:25:37.211Z,5.93
2023-07-25T20:28:04.623Z,5.47
2023-07-25T20:30:31.797Z,5.80
2023-07-25T20:32:59.112Z,5.40
2023-07-25T20:35:26.223Z,5.80
2023-07-25T20:37:53.384Z,7.30
2023-07-25T20:40:20.515Z,6.40
2023-07-25T20:42:47.630Z,7.80
2023-07-25T20:45:15.822Z,6.80
2023-07-25T20:47:43.367Z,7.10
2023-07-25T20:50:10.862Z,8.53
2023-07-25T20:52:38.184Z,7.33
2023-07-25T20:55:06.089Z,7.30
2023-07-25T20:57:33.352Z,7.83
2023-07-25T21:00:00.471Z,6.90
2023-07-25T21:02:29.089Z,6.80
2023-07-25T21:04:56.201Z,6.57
2023-07-25T21:07:23.288Z,6.13
2023-07-25T21:09:50.991Z,7.63
2023-07-25T21:12:18.078Z,7.37
2023-07-25T21:14:45.134Z,6.17
2023-07-25T21:17:15.286Z,6.30
2023-07-25T21:19:43.047Z,5.23
2023-07-25T21:22:10.131Z,6.50
2023-07-25T21:24:37.249Z,6.33
2023-07-25T21:27:04.435Z,5.47
2023-07-25T21:29:31.574Z,4.13
2023-07-25T21:31:58.717Z,6.10
2023-07-25T21:34:25.819Z,5.90
2023-07-25T21:36:52.877Z,5.20
2023-07-25T21:39:20.093Z,5.50
2023-07-25T21:41:48.299Z,7.80
2023-07-25T21:44:15.438Z,5.20
2023-07-25T21:46:42.703Z,5.80
2023-07-25T21:49:09.952Z,5.10
2023-07-25T21:51:37.015Z,5.43
2023-07-25T21:54:04.166Z,5.43
2023-07-25T21:56:31.348Z,5.40
2023-07-25T21:58:58.630Z,5.53
2023-07-25T22:01:25.809Z,5.93
2023-07-25T22:03:52.964Z,6.07
2023-07-25T22:06:20.425Z,5.90
2023-07-25T22:08:47.500Z,5.17
2023-07-25T22:11:14.610Z,6.00
2023-07-25T22:13:41.934Z,7.13
2023-07-25T22:16:09.108Z,6.20
2023-07-25T22:18:36.236Z,6.40
2023-07-25T22:21:03.341Z,6.07
2023-07-25T22:23:30.418Z,6.40
2023-07-25T22:26:07.105Z,6.00
2023-07-25T22:28:35.796Z,7.03
2023-07-25T22:31:03.654Z,6.90
2023-07-25T22:33:30.768Z,5.50
2023-07-25T22:35:57.820Z,6.07
2023-07-25T22:38:24.910Z,6.37
2023-07-25T22:40:51.983Z,5.87
2023-07-25T22:43:19.021Z,5.67
2023-07-25T22:45:46.086Z,5.20
2023-07-25T22:48:13.238Z,5.93
2023-07-25T22:50:40.260Z,6.60
2023-07-25T22:53:07.269Z,5.70
2023-07-25T22:55:34.642Z,5.70
2023-07-25T22:58:01.885Z,5.87
2023-07-25T23:00:29.026Z,7.10
2023-07-25T23:02:56.094Z,5.87
2023-07-25T23:05:23.443Z,5.83
2023-07-25T23:07:50.502Z,5.37
2023-07-25T23:10:17.708Z,5.93
2023-07-25T23:12:44.722Z,6.00
2023-07-25T23:15:13.138Z,7.00
2023-07-25T23:17:40.451Z,4.77
2023-07-25T23:20:08.387Z,5.60
2023-07-25T23:22:35.435Z,5.50
2023-07-25T23:25:02.578Z,5.43
2023-07-25T23:27:29.841Z,5.97
2023-07-25T23:29:57.264Z,5.80
2023-07-25T23:32:24.349Z,5.87
2023-07-25T23:34:55.001Z,5.20
2023-07-25T23:37:22.375Z,6.60
2023-07-25T23:39:49.645Z,6.37
2023-07-25T23:42:16.775Z,7.23
2023-07-25T23:44:43.858Z,7.20
2023-07-25T23:47:13.035Z,6.77
2023-07-25T23:49:40.546Z,6.67
2023-07-25T23:52:08.137Z,6.20
2023-07-25T23:54:35.550Z,6.90
2023-07-25T23:57:04.442Z,7.10
2023-07-25T23:59:31.997Z,7.30
